Aslo, Minnesota
Current Conditions -  °F | °C
As of 7:33 PM on Monday 24 Nov 2014 (Local Time) from KMZH Reporting Station
Overcast Overcast  
Wind Chill:   Ceiling: 2200
Heat Index: 19°   Visibility: 10mi
Dew Point: 12°   Wind: 14mph
Humidity: 74%   Direction: 330°NNW
Pressure: 29.73"   Gusts: 21mph
Location:  46.2004°N, 92.675°W
Report Text: KMZH 250133Z AUTO 33012G18KT 10SM BKN022 OVC050 M07/M11 A2973 RMK AO2
Loading
Personal Weather Stations






























Interactive Weather Map New forecast layout! Learn more

10-Day Weather Forecast

Advertisements
Track Severe Weather on mobile